Item Display Status Humidity-temperature Sensor

Elevation Above Sea Level: 3 m

 

Deployed Sensor

  • Serial Number: 61115783
  • NDBC Property Number: 36924
  • Start Date: 11/19/2018 (12:58:34 Z)
  • End Date: Currently Active
Relative Humidity [%]     6 entries per hour
Showing data from 11/15/2019 (01:00:00 Z) to 11/14/2019 (00:00:01 Z)
Previous Next [ Day | 3-Days | 7-Days ]
First Last
Prev [ Day | 3-Days | 7-Days ] Next
First Last

Start Time:     :
End Time:     :     
Time (in GMT) :00 :50 :40 :30 :20 :10
Previous Next [ Day | 3-Days | 7-Days ]
First Last
Prev [ Day | 3-Days | 7-Days ] Next
First Last


123 => good data
MM => data is determined as missing
-- => data not received/configured
Back to Top Back to Top
11/15/2019 01:00 to 0:10 80.73 81.42 81.63 81.42 81.22 81.14
11/15/2019 00:00 to 23:10 80.04 78.87 79.18 77.08 78.20 76.96
11/14/2019 23:00 to 22:10 77.83 76.83 75.88 76.87 76.14 76.24
11/14/2019 22:00 to 21:10 75.59 74.78 74.29 74.04 73.59 73.23
11/14/2019 21:00 to 20:10 74.18 75.26 74.33 74.55 74.47 73.65
11/14/2019 20:00 to 19:10 75.39 75.20 76.75 74.82 74.16 73.31
11/14/2019 19:00 to 18:10 73.72 73.10 73.02 73.96 73.35 72.88
11/14/2019 18:00 to 17:10 73.71 71.66 73.35 74.75 77.30 76.88
11/14/2019 17:00 to 16:10 74.37 73.69 74.49 75.22 73.37 72.21
11/14/2019 16:00 to 15:10 73.98 73.84 73.67 76.14 78.57 76.06
11/14/2019 15:00 to 14:10 74.20 72.78 73.41 73.41 73.63 72.92
11/14/2019 14:00 to 13:10 73.49 77.98 76.08 79.02 79.51 78.67
11/14/2019 13:00 to 12:10 78.08 77.18 76.75 76.24 75.41 74.90
11/14/2019 12:00 to 11:10 76.61 79.12 80.89 79.69 77.34 79.89
11/14/2019 11:00 to 10:10 82.34 82.34 82.48 82.32 81.75 81.52
11/14/2019 10:00 to 9:10 79.99 79.51 76.67 72.80 72.45 74.10
11/14/2019 09:00 to 8:10 78.49 78.81 79.42 79.08 79.53 78.65
11/14/2019 08:00 to 7:10 80.67 80.26 81.26 80.08 76.65 79.02
11/14/2019 07:00 to 6:10 80.01 81.18 81.58 81.26 80.28 79.20
11/14/2019 06:00 to 5:10 78.53 78.24 78.49 77.91 78.24 79.22
11/14/2019 05:00 to 4:10 78.69 78.87 77.79 76.81 77.53 75.26
11/14/2019 04:00 to 3:10 76.34 74.94 74.98 75.33 74.55 74.55
11/14/2019 03:00 to 2:10 75.02 75.86 74.82 73.78 74.08 76.10
11/14/2019 02:00 to 1:10 74.41 74.96 76.30 76.26 76.75 76.12
11/14/2019 01:00 to 0:10 77.49 76.16 77.53 77.10 76.51 76.00

 

 

 

Air Temperature [°C]     6 entries per hour
Showing data from 11/15/2019 (01:00:00 Z) to 11/14/2019 (00:00:01 Z)
Previous Next [ Day | 3-Days | 7-Days ]
First Last
Prev [ Day | 3-Days | 7-Days ] Next
First Last

Start Time:     :
End Time:     :     
Time (in GMT) :00 :50 :40 :30 :20 :10
Previous Next [ Day | 3-Days | 7-Days ]
First Last
Prev [ Day | 3-Days | 7-Days ] Next
First Last


123 => good data
MM => data is determined as missing
-- => data not received/configured
Back to Top Back to Top
11/15/2019 01:00 to 0:10 21.70 21.76 21.77 21.75 21.71 21.80
11/15/2019 00:00 to 23:10 21.85 21.93 22.02 22.11 22.01 22.10
11/14/2019 23:00 to 22:10 21.96 22.04 22.13 22.10 22.01 21.95
11/14/2019 22:00 to 21:10 22.10 22.06 22.09 22.07 22.19 22.13
11/14/2019 21:00 to 20:10 22.06 22.09 22.09 22.18 22.16 22.01
11/14/2019 20:00 to 19:10 22.13 22.11 22.13 22.19 22.20 22.16
11/14/2019 19:00 to 18:10 22.14 22.10 22.05 22.05 22.04 21.98
11/14/2019 18:00 to 17:10 22.17 22.10 22.13 22.10 22.03 22.23
11/14/2019 17:00 to 16:10 22.21 22.22 22.07 22.11 22.05 22.15
11/14/2019 16:00 to 15:10 22.12 22.14 22.26 21.87 21.96 21.98
11/14/2019 15:00 to 14:10 22.09 22.15 21.98 21.96 21.95 21.96
11/14/2019 14:00 to 13:10 21.92 21.79 21.81 21.80 21.76 21.64
11/14/2019 13:00 to 12:10 21.71 21.68 21.77 21.69 21.80 21.74
11/14/2019 12:00 to 11:10 21.70 21.47 21.58 21.63 21.47 21.38
11/14/2019 11:00 to 10:10 21.38 21.24 21.40 21.29 21.35 21.45
11/14/2019 10:00 to 9:10 21.34 21.38 21.85 21.66 21.55 21.51
11/14/2019 09:00 to 8:10 21.49 21.26 21.35 21.36 21.23 21.39
11/14/2019 08:00 to 7:10 21.37 21.42 21.44 21.63 21.72 21.47
11/14/2019 07:00 to 6:10 21.40 21.54 21.41 21.53 21.57 21.62
11/14/2019 06:00 to 5:10 21.62 21.54 21.62 21.65 21.51 21.76
11/14/2019 05:00 to 4:10 21.60 21.63 21.68 21.61 21.83 21.63
11/14/2019 04:00 to 3:10 21.74 21.66 21.69 21.75 21.75 21.75
11/14/2019 03:00 to 2:10 21.71 21.79 21.84 21.82 21.77 21.83
11/14/2019 02:00 to 1:10 21.79 21.76 21.73 21.78 21.78 21.77
11/14/2019 01:00 to 0:10 21.90 21.94 22.00 21.90 21.98 21.96